Warwick, North Dakota
Current Conditions -  °F | °C
As of 11:15 AM on Saturday 20 Dec 2014 (Local Time) from KDVL Reporting Station
Overcast Overcast  
Wind Chill: 19°   Ceiling: 200
Heat Index: 25°   Visibility: 0.25mi
Dew Point: 18°   Wind: 5mph
Humidity: 74%   Direction: 150°SSE
Pressure: 29.92"   Gusts: NA
Location:  47.86°N, 98.71°W
Report Text: KDVL 201715Z AUTO 15004KT 1/4SM OVC002 M04/M08 A2992 RMK AO1
Loading
Personal Weather Stations






























Interactive Weather Map New forecast layout! Learn more

10-Day Weather Forecast

Advertisements
Track Severe Weather on mobile